Flight Track Log - Related Links

Times and Time Zones

All times are in EST time to prevent confusion due to time zone crossing. See the TAM3914 flight status page for this flight to view local times or setup timezone preferences in your user account.

Time Position Orientation Groundspeed Altitude Reporting Facility
EST Latitude Longitude Course Direction KTS MPH feet Rate Location/Type
Mon 07:24:00 AM -23.4552 -45.7802 78° East  Level Estimated
Mon 07:25:00 AM -23.4334 -45.6710 78° East  Level Estimated
Mon 07:26:00 AM -23.4115 -45.5617 78° East  Level Estimated
Mon 07:27:00 AM -23.3896 -45.4526 78° East  Level Estimated
Mon 07:28:00 AM -23.3676 -45.3435 78° East  Level Estimated
Mon 07:29:00 AM -23.3455 -45.2344 78° East  Level Estimated
Mon 07:30:00 AM -23.3234 -45.1253 78° East  Level Estimated
Mon 07:31:00 AM -23.3011 -45.0163 77° East  Level Estimated
Mon 07:32:00 AM -23.2788 -44.9073 77° East  Level Estimated
Mon 07:33:00 AM -23.2564 -44.7984 77° East  Level Estimated
Mon 07:34:00 AM -23.2339 -44.6894 77° East  Level Estimated
Mon 07:35:00 AM -23.2114 -44.5806 77° East  Level Estimated
Mon 07:36:00 AM -23.1888 -44.4717 77° East  Level Estimated
Mon 07:37:00 AM -23.1661 -44.3629 77° East  Level Estimated
Mon 07:38:00 AM -23.1434 -44.2542 77° East  Level Estimated
Mon 07:39:00 AM -23.1205 -44.1455 77° East  Level Estimated
Mon 07:40:00 AM -23.0976 -44.0368 77° East  Level Estimated
Mon 07:41:00 AM -23.0746 -43.9281 77° East  Level Estimated
Mon 07:42:00 AM -23.0516 -43.8195 77° East  Level Estimated
Mon 07:43:00 AM -23.0284 -43.7109 77° East  Level Estimated
Mon 07:44:00 AM -23.0052 -43.6024 77° East  Level Estimated
Mon 07:45:00 AM -22.9819 -43.4939 77° East  Level Estimated
Mon 07:46:00 AM -22.9586 -43.3854 77° East  Level Estimated
Mon 07:47:00 AM -22.9352 -43.2770 77° East  Level Estimated
Mon 07:48:00 AM -22.9116 -43.1686 77° East  Level Estimated
Mon 07:49:00 AM -22.9105 -43.1631 77° East  Level Estimated
Mon 07:50:00 AM -22.9105 -43.1631 250° West  Level Estimated
Mon 07:51:00 AM -22.9105 -43.1631 250° West  Level Estimated
Mon 07:52:00 AM -22.9105 -43.1631 250° West  Level Estimated
Mon 07:53:00 AM -22.9105 -43.1631 250° West  Level Estimated
Mon 07:54:00 AM -22.9105 -43.1631 250° West  Level Estimated
Mon 07:55:00 AM -22.9105 -43.1631 250° West  Level Estimated
Mon 07:56:00 AM -22.9105 -43.1631 250° West  Level Estimated
Mon 07:57:00 AM -22.9105 -43.1631 250° West  Level Estimated
Mon 07:58:00 AM -22.9105 -43.1631 250° West  Level Estimated
Mon 07:59:00 AM -22.9105 -43.1631 250° West  Level Estimated
Mon 08:00:00 AM -22.9105 -43.1631 250° West  Level Estimated
Mon 08:01:00 AM -22.9105 -43.1631 250° West  Level Estimated
Mon 08:02:00 AM -22.9105 -43.1631 250° West  Level Estimated
Mon 08:03:00 AM -22.9105 -43.1631 250° West  Level Estimated
Mon 08:04:00 AM -22.9105 -43.1631 250° West  Level Estimated

Login

Don't have an account? Register now (free) for customized features, flight alerts, and more!